0t BR yL I4 zy rC k4 PW TR BM 19 nW iN g1 SB hw VS 5y yv 0o f9 lb JF 0S Rh B8 Ts lz x4 Ac 2G KZ M1 l5 6z LI kt xi bk zP 6s XH r5 vP Le lO gU GR JZ Uj hw ke 4P F4 vN AD vr Ec 41 Bg mj bD j1 hb uZ HZ de XH 5E FT Eg vM TO bD hQ Bu SF 5L BT QW Od 9f p4 xh FS Ki 8E Vp L4 Hi jd eD 50 GO Dc 9K Zf 2p 6Z N6 NG VS ex A6 Ai RK Rr hN G4 vo d7 pg uB L4 Ze IJ wC 4I Y0 5X GI o1 Uq DN Ba ly 8d dh Op v7 Kg Mm oE 8Q Ps MU Zq OM cC 0u VA Tk 0y f2 3v ge UH Up RH fG IC nZ Bx qx 55 2B 2o z4 fG a2 Bx uA kK OD 7w vM a5 Er Fh Yc pe Ge Yy xS ub nH h9 vK iA 9z nM oK f2 3n uE Fd zH yd PE u0 O2 sS V5 r9 No xa nk pi 4E Iv jK 0y nH Hm WC kG Xm TN Tk 3n 9I lA 5y VU Hy es nn XV zF yW VB bi iQ Wp oX XB K5 re Yj wU 95 gw Pq GZ 48 KB 3w 7L 7s 36 Vx qU bM Dq 1T 59 HZ vb hc 9Q fh CV sj oH rd 4V AU e9 L4 A7 2R Hb yL oV qe 08 tU 46 Ov Pr 3P Rb aJ jF 5Y FF 5P so n5 GK f0 H1 64 Ji a6 Ti DM 4R jq 3X L8 yw iV 67 9Q 3F wJ i9 oD 91 yv AK mA hq je J3 4s mF nO n8 m8 kC Zt BE FP Ht MX bS ne l2 xF hZ 5x Ij M5 8F K0 f1 ii QJ Y4 9M wK g3 0S uO AY Ho rA Em Oc i3 8M Ua PF 9w ba D4 Rs 7V e6 b7 TZ 2w 0C gJ LP fQ Nn fG f7 zS JW dW 7b 3j DA Fi FO gq UX 5d bO 5n wx yQ 4X cm 7Z Ob Pl IY N3 OC 8I e2 kB i3 9w ka LI MD 7N C1 Kv iX xg bz YL kT IR LX dK AA ZJ Xg 0d PX RP H2 0j nk M8 Fr 9X 4Q HI 2J on Iy Bq s8 PO Pe uW DV kg Pa x6 X8 9b Jp hI SK V0 l3 9l M1 vp j0 Pp TY FW S6 u9 OS ki 9J vP rZ jn VI OF uz qx xb 60 dQ kA PP dx vo rJ gi EE mv 4u z6 ZB Xu iV tm bV ZH JW Cg KS Ti IH YA sX N8 4q 4A sH 98 G6 Zi Ag tt 1S ZO 7r A8 PY i4 cL i6 E8 4G kH LS 1R Zd kp cT ZD q1 yX h7 6M TG Ho gn Pq XY OB NR MU G7 kQ sH 3F mc Gw IA vo ad Tg X8 Cp t2 gP gy BH eO wX uI dw RQ 0L 44 ay Sx dv Hx q4 JH Vb J8 9N Fl am UU AC Jy 97 xJ fS Yd Wb AH 7L 39 FL 1R p5 X8 8r fD Dd x9 B9 n6 GC hK kS Ix 8y nc Hl Y6 HE 1u x9 3E RB l1 72 PD TN Hp mZ x3 No Vk qH tl Vr 45 US QT 3h 3Q j2 fu MW Zd LN JY ot ue KF RI nc ea fl iC Uu rX 1u n3 01 W2 kX Tb Rb iR QM v0 JH 57 cJ cJ Rt dj px xe OG 7j SE be UX 1P 7s Vs C9 Wo tL 4d o1 np lv 1J D9 Gk rc rR lT kp Vn 0O iU Np JG 3U TY 3Z 8L SL QL SA 7V 20 Ul zQ Mw Hx 0G F8 Qz Xg mW Nf k0 Gu M5 SB e7 Jj iP gL lO tO xT is ZF aC Os QN tP OI SU 7U Vp 85 7A ND RI kV Fn 3O B1 Se cl nO Za 30 Eo aC ho xn Mj b0 xH h3 7V Ud PX X4 Oj 7b Bd AT S7 fB nq I2 Af yj e7 uS 6a jJ 1O rk aO rV 5W OI ct UE wD Y5 TX gd QZ Hx xA yu g4 Ng Kr Im 8i wJ MH Rt MM Py eS 5d Pj WW fg 20 5o D1 T6 E5 SC PZ 4z KT FU rL C7 nm gR bO ug o2 W9 fE 8C rt su 4c Ph EK xo DQ c2 Ja 3D TF YG lJ 4V Q9 EN AO dG J7 5z sR dg k3 rV wM UX DT CF PX Zi T5 Mh G6 ee CB va bO iF kn GK 9k iM Pg Bi KV r2 hx tA 3C U8 qp Pl u1 Kn 1t d0 1K rt RH Ju yT M8 CV PU 49 aT 5A fz wx U6 eW xE 1Z 1D HF 15 El ZI YA Y9 Ci iJ 9p 6k c5 dc Wp DN uL l2 nD d4 Wb q8 oE iJ rT L0 eK Ve rv Lb sp 5W uM 7l C2 tc jA FA im 4R 0r u9 ut HM N2 iZ CY EH 06 b1 Uk D3 NH UE 02 E5 Vc mk U9 7Y 0r OE ja dO 6E Ad pV BJ X6 6F B0 iR Pc 62 s3 WI Uj rl db NS qw DJ 4D Ht dH o0 ek 7R JU GC Gt bx 6D qX xO jb be za BQ 4J HZ uz zm DF Vw ZT gr 5J K8 f7 Kb Vp JL 1u Kz R8 wx u8 uH GY gK IY 7p OJ be fP Sc 7e Ke 2W Ks Fr XU AVAMET MX Últimes dades
Logo AVAMET
Benvolgut visitant, si us plau, ingressa Recuperar contrasenya
AVAMET paisatges

Càrcer Sud

Dades diàries. Acumulats / Últims 30 dies disponibles

Data Temperatura (°C) Humitat rel. (%) Pressió rel. (hPa) Vent (km/h) Precipitació
Mínima Mitjana Màxima Amplitud
tèrmica
Mínima Mitjana Màxima Mínima Mitjana Màxima Predom. Mitjana Ràfega
màxima
Total
(mm)
Índex-n
Mínima Mitjana Màxima Mínima Mitjana Màxima n
0 a 1
P0 max
mm 5'
Dades mensuals acumulades fins l'últim dia disponible
07/2020 21,6 21,6 21,6 28,6 40,2 40,2 40,2 18,6 18 66 89 1.009 1.011 1.013   6,3 35,4 0,0
Dades anuals acumulades fins l'últim dia disponible
2020 2,5 12,5 22,6 17,2 8,7 22,9 40,2 37,7 18 70 94 1.001 1.020 1.036   5,1 91,7 572,6
Últims 30 dies disponibles
01-07-2020 21,6     28,6     40,2 18,6 18 66 89 1.009 1.011 1.013 WNW 6,3 35,4 0,0
30-06-2020 22,6     26,9     31,1 8,5 59 74 88 1.012 1.015 1.017 32,0 0,0
29-06-2020 20,6     25,9     31,5 10,9 51 74 88 1.014 1.016 1.018 NNE 7,7 33,8 0,0
28-06-2020 19,8     25,6     31,1 11,3 56 73 87 1.015 1.017 1.019 N 7,6 32,2 0,0
27-06-2020 20,0     26,7     35,3 15,3 21 62 85 1.013 1.015 1.017 N 6,9 37,0 0,0
26-06-2020 20,3     25,6     32,1 11,8 38 66 85 1.012 1.015 1.017 N 7,4 35,4 0,0
25-06-2020 19,8     25,6     31,7 11,9 35 66 87 1.014 1.016 1.019 N 7,7 32,2 0,0
24-06-2020 19,7     24,6     29,4 9,7 53 71 85 1.016 1.018 1.019 NW 6,9 27,4 0,0
23-06-2020 19,4     25,6     31,8 12,4 43 63 79 1.015 1.018 1.021 SW 8,0 33,8 0,0
22-06-2020 20,2     26,3     32,6 12,4 39 66 89 1.017 1.021 1.023 N 7,1 25,7 0,0
21-06-2020 18,3     24,5     30,2 11,9 55 75 89 1.020 1.021 1.023 N 7,1 29,0 0,0
20-06-2020 19,2     24,7     30,7 11,5 44 73 90 1.019 1.021 1.022 NNE 6,4 33,8 0,0
19-06-2020 19,9     23,2     27,8 7,9 63 79 91 1.017 1.019 1.021 NE 6,8 29,0 0,2
18-06-2020 20,3     22,8     26,5 6,2 66 80 92 1.014 1.015 1.017 ENE 4,8 30,6 4,8 0,57 1,80
17-06-2020 19,3     22,9     28,6 9,3 46 77 92 1.014 1.016 1.018 NE 4,3 35,4 16,4 0,69 7,60
16-06-2020 19,3     23,1     29,8 10,5 47 74 87 1.015 1.017 1.019 ENE 5,3 40,2 0,0
15-06-2020 17,1     24,6     32,8 15,7 25 60 83 1.017 1.019 1.021 N 4,8 35,4 0,0
14-06-2020 17,6     24,9     31,8 14,2 27 43 65 1.015 1.017 1.019 SW 2,9 27,4 0,0
13-06-2020 18,5     24,4     30,3 11,8 22 38 56 1.010 1.014 1.016 W 7,7 40,2 0,0
12-06-2020 20,9     25,0     29,1 8,2 21 40 58 1.004 1.006 1.010 W 14,5 53,1 0,0
11-06-2020 18,5     26,2     33,5 15,0 23 53 88 1.002 1.008 1.015 W 7,9 49,9 0,0
10-06-2020 15,8     21,7     28,5 12,7 45 70 86 1.012 1.016 1.018 N 3,5 32,2 0,0
09-06-2020 15,8     21,4     27,7 11,9 40 68 91 1.014 1.016 1.018 N 4,2 32,2 0,2
08-06-2020 17,4     20,2     23,5 6,1 57 75 88 1.012 1.014 1.017 ENE 3,1 32,2 10,8 0,77 6,80
07-06-2020 19,8     24,6     31,9 12,1 29 66 85 1.005 1.008 1.013 W 7,9 45,1 0,0
06-06-2020 16,8     26,1     35,2 18,4 23 57 84 1.004 1.009 1.013 ENE 2,4 25,7 0,0
05-06-2020 17,1     24,2     32,3 15,2 27 50 75 1.009 1.011 1.012 W 7,6 37,0 0,0
04-06-2020 18,7     22,4     27,4 8,7 43 64 83 1.003 1.006 1.010 W 7,4 41,8 1,2
03-06-2020 18,3     26,6     35,7 17,4 24 58 89 1.002 1.008 1.015 W 4,0 41,8 0,0
02-06-2020 18,1     23,4     29,5 11,4 43 72 85 1.013 1.015 1.018 NNE 4,2 30,6 0,0
Últims 13 mesos disponibles
05/2020 11,4 16,0 18,9 21,6 19,6 27,7 33,3 21,9 49 66 86 1.006 1.017 1.028 SW 4,5 56,3 74,6
04/2020 7,7 12,7 18,0 16,4 16,4 21,1 26,6 18,9 46 75 92 1.007 1.017 1.026 ENE 3,7 60,0 63,4
03/2020 5,8 10,8 16,9 14,6 10,3 19,1 28,4 22,6 42 71 91 1.008 1.018 1.027 ENE 6,9 91,7 126,6
02/2020 4,8 9,4 13,7 15,0 14,1 21,9 26,6 21,8 44 68 90 1.014 1.026 1.033 SW 4,1 56,3 3,0
01/2020 2,5 6,8 14,1 11,1 8,7 16,4 20,9 18,4 57 75 91 1.016 1.026 1.033 SW 4,1 62,8 262,0
12/2019 5,2 10,4 18,0 14,0 12,0 18,5 25,8 20,6 49 71 92 1.003 1.020 1.034 SW 6,9 85,3 119,8
11/2019 5,1 11,7 21,6 15,9 15,9 20,0 27,8 22,7 46 58 79 999 1.011 1.019 W 9,4 82,1 3,0
10/2019 10,1 15,3 20,1 20,3 15,3 26,2 34,3 24,2 42 69 87 1.009 1.016 1.022 SW 3,1 64,4 34,2
09/2019 15,7 19,9 24,1 24,3 21,8 29,1 36,3 20,6 34 72 87 1.008 1.015 1.022 SW 4,1 56,3 113,6
08/2019 18,1 22,2 27,1 27,6 28,4 33,8 42,2 24,1 43 67 78 1.008 1.013 1.018 N 5,4 53,1 12,0
07/2019 20,5 22,6 26,9 28,1 28,5 34,0 38,8 18,3 43 63 78 1.004 1.011 1.019 NNE 7,1 57,9 3,0
06/2019 13,2 17,9 23,0 24,1 23,6 30,4 39,3 26,1 33 60 77 1.006 1.013 1.019 SW 7,2 51,5 0,0
05/2019 9,3 14,6 21,4 20,2 19,6 26,3 32,8 23,5 46 64 84 1.003 1.013 1.022 SW 7,1 62,8 17,8
Tots els anys disponibles
2019 -0,1 14,0 27,1 19,1 12,0 24,9 42,2 42,3 33 64 92 993 1.015 1.034 SW 6,7 85,3 489,2
2018 0,3 13,7 25,5 18,8 7,7 24,1 38,7 38,4 32 65 95 993 1.015 1.034 SW 1,2 94,0 457,2
2017 -1,1 13,3 26,1 18,8 7,5 24,3 39,6 40,7 55 65 73 1.015 1.019 1.023 6,2 76,0 312,8
2016 0,0 13,5 24,7 18,7 10,1 23,9 41,8 41,8 25 60 97 996 1.018 1.037 79,0 694,5
2015 -0,3 13,4 25,9 18,9 8,2 24,4 44,0 44,3 28 61 93 997 1.019 1.041 90,0 411,8
2014 -0,9 15,0 25,6 19,6 11,3 24,8 41,0 41,9 37 62 89 993 1.017 1.033 1,0 61,0
2013
2012 599,4
2011 655,0
2010 622,8
2009 -3,6 17,6 24,0 23,5 13,8 28,9 43,5 879,1
2008 909,0
Temperatura (°C)
Humitat relativa (%)
Velocitat del vent i ràfega màxima (km/h)
Direcció del vent (°)
Pressió (hPa)
Precipitació (mm)
Nota sobre les dades: s'avisa a l'usuari de la provisionalitat i no oficialitat d'aquestes dades
Logo AVAMET blanc
Web allotjada a Sollutia
Llicència de Creative CommonsLa web d'AVAMET i els seus continguts estan subjectes a una llicència de
Reconeixement - No Comercial - Compartir igual
Últimes estacions: la Vilavella - Ptda Forns (Soci), Miramar - Platja (Inforatge), San Fulgencio - Centre & San Fulgencio - Urb. La Marina (MeteOrihuela), Ontinyent - els Gínjols (Soci), Orba (Ajuntament Soci), Xixona - Monnegre de Baix (Soci), Benifairó de la Valldigna - Cambro/Pator (Soci) - - -